createdAt,value
2018-07-09T00:00:01.184Z,1008.62
2018-07-09T00:01:01.206Z,1008.65
2018-07-09T00:02:01.226Z,1008.62
2018-07-09T00:03:01.244Z,1008.61
2018-07-09T00:04:01.264Z,1008.58
2018-07-09T00:05:01.286Z,1008.58
2018-07-09T00:06:01.305Z,1008.55
2018-07-09T00:07:01.325Z,1008.56
2018-07-09T00:08:01.345Z,1008.55
2018-07-09T00:09:01.360Z,1008.56
2018-07-09T00:10:01.382Z,1008.56
2018-07-09T00:11:01.405Z,1008.52
2018-07-09T00:12:01.421Z,1008.49
2018-07-09T00:13:01.438Z,1008.47
2018-07-09T00:14:01.467Z,1008.48
2018-07-09T00:15:01.485Z,1008.48
2018-07-09T00:16:01.499Z,1008.47
2018-07-09T00:17:01.529Z,1008.48
2018-07-09T00:18:01.541Z,1008.48
2018-07-09T00:19:01.563Z,1008.46
2018-07-09T00:20:01.583Z,1008.49
2018-07-09T00:21:01.601Z,1008.50
2018-07-09T00:22:01.619Z,1008.50
2018-07-09T00:23:01.637Z,1008.48
2018-07-09T00:24:01.663Z,1008.49
2018-07-09T00:25:01.677Z,1008.51
2018-07-09T00:26:01.695Z,1008.51
2018-07-09T00:27:01.715Z,1008.50
2018-07-09T00:28:01.736Z,1008.48
2018-07-09T00:29:01.757Z,1008.48
2018-07-09T00:30:01.776Z,1008.49
2018-07-09T00:31:01.804Z,1008.49
2018-07-09T00:32:01.817Z,1008.49
2018-07-09T00:33:01.837Z,1008.48
2018-07-09T00:34:01.856Z,1008.50
2018-07-09T00:35:01.869Z,1008.52
2018-07-09T00:36:01.902Z,1008.49
2018-07-09T00:37:01.917Z,1008.53
2018-07-09T00:38:01.936Z,1008.50
2018-07-09T00:39:01.952Z,1008.55
2018-07-09T00:40:01.973Z,1008.56
2018-07-09T00:41:01.989Z,1008.56
2018-07-09T00:42:02.013Z,1008.55
2018-07-09T00:43:02.025Z,1008.52
2018-07-09T00:44:02.060Z,1008.53
2018-07-09T00:45:02.063Z,1008.54
2018-07-09T00:46:02.089Z,1008.52
2018-07-09T00:47:02.108Z,1008.54
2018-07-09T00:48:02.126Z,1008.53
2018-07-09T00:49:02.148Z,1008.54
2018-07-09T00:50:02.168Z,1008.54
2018-07-09T00:51:02.239Z,1008.56
2018-07-09T00:52:02.205Z,1008.56
2018-07-09T00:53:02.228Z,1008.55
2018-07-09T00:54:02.249Z,1008.54
2018-07-09T00:55:02.258Z,1008.56
2018-07-09T00:56:02.281Z,1008.55
2018-07-09T00:57:02.307Z,1008.50
2018-07-09T00:58:02.324Z,1008.51
2018-07-09T00:59:02.353Z,1008.49
2018-07-09T01:00:02.359Z,1008.48
2018-07-09T01:01:02.386Z,1008.50
2018-07-09T01:02:02.398Z,1008.51
2018-07-09T01:03:02.418Z,1008.49
2018-07-09T01:04:02.435Z,1008.47
2018-07-09T01:05:02.455Z,1008.50
2018-07-09T01:06:02.477Z,1008.48
2018-07-09T01:07:02.499Z,1008.47
2018-07-09T01:08:02.515Z,1008.48
2018-07-09T01:09:02.540Z,1008.48
2018-07-09T01:10:02.552Z,1008.48
2018-07-09T01:11:02.604Z,1008.50
2018-07-09T01:12:02.593Z,1008.49
2018-07-09T01:13:02.611Z,1008.52
2018-07-09T01:14:02.631Z,1008.52
2018-07-09T01:15:02.651Z,1008.50
2018-07-09T01:16:02.669Z,1008.50
2018-07-09T01:17:02.687Z,1008.49
2018-07-09T01:18:02.710Z,1008.50
2018-07-09T01:19:02.731Z,1008.47
2018-07-09T01:20:02.747Z,1008.49
2018-07-09T01:21:02.765Z,1008.50
2018-07-09T01:22:02.786Z,1008.51
2018-07-09T01:23:02.801Z,1008.55
2018-07-09T01:24:02.824Z,1008.51
2018-07-09T01:25:02.843Z,1008.50
2018-07-09T01:26:02.864Z,1008.52
2018-07-09T01:27:02.885Z,1008.49
2018-07-09T01:28:02.898Z,1008.47
2018-07-09T01:29:02.918Z,1008.49
2018-07-09T01:30:02.945Z,1008.48
2018-07-09T01:31:02.954Z,1008.49
2018-07-09T01:32:02.993Z,1008.43
2018-07-09T01:33:02.993Z,1008.47
2018-07-09T01:34:03.016Z,1008.44
2018-07-09T01:35:03.033Z,1008.48
2018-07-09T01:36:03.054Z,1008.43
2018-07-09T01:37:03.071Z,1008.46
2018-07-09T01:38:03.092Z,1008.43
2018-07-09T01:39:03.110Z,1008.45
2018-07-09T01:40:03.127Z,1008.41
2018-07-09T01:41:03.159Z,1008.40
2018-07-09T01:42:03.171Z,1008.41
2018-07-09T01:43:03.205Z,1008.42
2018-07-09T01:44:03.204Z,1008.39
2018-07-09T01:45:03.222Z,1008.41
2018-07-09T01:46:03.266Z,1008.38
2018-07-09T01:47:03.261Z,1008.36
2018-07-09T01:48:03.281Z,1008.35
2018-07-09T01:49:03.303Z,1008.35
2018-07-09T01:50:03.324Z,1008.31
2018-07-09T01:51:03.338Z,1008.30
2018-07-09T01:52:03.363Z,1008.30
2018-07-09T01:53:03.378Z,1008.27
2018-07-09T01:54:03.396Z,1008.32
2018-07-09T01:55:03.420Z,1008.37
2018-07-09T01:56:03.434Z,1008.36
2018-07-09T01:57:03.458Z,1008.39
2018-07-09T01:58:03.473Z,1008.36
2018-07-09T01:59:03.489Z,1008.32
2018-07-09T02:00:03.511Z,1008.30
2018-07-09T02:01:03.530Z,1008.29
2018-07-09T02:02:03.552Z,1008.26
2018-07-09T02:03:03.568Z,1008.20
2018-07-09T02:04:03.591Z,1008.15
2018-07-09T02:05:03.628Z,1008.21
2018-07-09T02:06:03.624Z,1008.21
2018-07-09T02:07:03.644Z,1008.19
2018-07-09T02:08:03.664Z,1008.27
2018-07-09T02:09:03.683Z,1008.25
2018-07-09T02:10:03.699Z,1008.21
2018-07-09T02:11:03.718Z,1008.23
2018-07-09T02:12:03.736Z,1008.25
2018-07-09T02:13:03.755Z,1008.22
2018-07-09T02:14:03.776Z,1008.21
2018-07-09T02:15:03.800Z,1008.21
2018-07-09T02:16:03.812Z,1008.21
2018-07-09T02:17:03.835Z,1008.24
2018-07-09T02:18:03.853Z,1008.24
2018-07-09T02:19:03.875Z,1008.26
2018-07-09T02:20:03.888Z,1008.20
2018-07-09T02:21:03.917Z,1008.18
2018-07-09T02:22:03.933Z,1008.16
2018-07-09T02:23:03.946Z,1008.19
2018-07-09T02:24:03.964Z,1008.18
2018-07-09T02:25:03.984Z,1008.21
2018-07-09T02:26:04.004Z,1008.19
2018-07-09T02:27:04.035Z,1008.19
2018-07-09T02:28:04.045Z,1008.19
2018-07-09T02:29:04.063Z,1008.16
2018-07-09T02:30:04.082Z,1008.21
2018-07-09T02:31:04.097Z,1008.20
2018-07-09T02:32:04.119Z,1008.19
2018-07-09T02:33:04.135Z,1008.20
2018-07-09T02:34:04.165Z,1008.21
2018-07-09T02:35:04.176Z,1008.16
2018-07-09T02:36:04.192Z,1008.18
2018-07-09T02:37:04.214Z,1008.22
2018-07-09T02:38:04.233Z,1008.23
2018-07-09T02:39:04.257Z,1008.24
2018-07-09T02:40:04.267Z,1008.26
2018-07-09T02:41:04.288Z,1008.25
2018-07-09T02:42:04.307Z,1008.23
2018-07-09T02:43:04.329Z,1008.19
2018-07-09T02:44:04.349Z,1008.15
2018-07-09T02:45:04.364Z,1008.20
2018-07-09T02:46:04.381Z,1008.15
2018-07-09T02:47:04.407Z,1008.13
2018-07-09T02:48:04.422Z,1008.15
2018-07-09T02:49:04.493Z,1008.18
2018-07-09T02:50:04.457Z,1008.16
2018-07-09T02:51:04.478Z,1008.20
2018-07-09T02:52:04.502Z,1008.20
2018-07-09T02:53:04.517Z,1008.21
2018-07-09T02:54:04.538Z,1008.25
2018-07-09T02:55:04.557Z,1008.26
2018-07-09T02:56:04.575Z,1008.27
2018-07-09T02:57:04.606Z,1008.26
2018-07-09T02:58:04.613Z,1008.25
2018-07-09T02:59:04.637Z,1008.27
2018-07-09T03:00:04.646Z,1008.25
2018-07-09T03:01:04.851Z,1008.25
2018-07-09T03:02:04.694Z,1008.30
2018-07-09T03:03:04.704Z,1008.34
2018-07-09T03:04:04.727Z,1008.36
2018-07-09T03:05:04.746Z,1008.31
2018-07-09T03:06:04.789Z,1008.31
2018-07-09T03:07:04.780Z,1008.36
2018-07-09T03:08:04.806Z,1008.33
2018-07-09T03:09:04.820Z,1008.32
2018-07-09T03:10:04.843Z,1008.34
2018-07-09T03:11:04.858Z,1008.32
2018-07-09T03:12:04.887Z,1008.35
2018-07-09T03:13:04.897Z,1008.35
2018-07-09T03:14:04.915Z,1008.37
2018-07-09T03:15:04.939Z,1008.43
2018-07-09T03:16:04.955Z,1008.43
2018-07-09T03:17:04.983Z,1008.47
2018-07-09T03:18:05.002Z,1008.50
2018-07-09T03:19:05.087Z,1008.49
2018-07-09T03:20:05.029Z,1008.50
2018-07-09T03:21:05.054Z,1008.55
2018-07-09T03:22:05.069Z,1008.57
2018-07-09T03:23:05.093Z,1008.55
2018-07-09T03:24:05.106Z,1008.62
2018-07-09T03:25:05.124Z,1008.62
2018-07-09T03:26:05.146Z,1008.65
2018-07-09T03:27:05.164Z,1008.65
2018-07-09T03:28:05.192Z,1008.61
2018-07-09T03:29:05.205Z,1008.62
2018-07-09T03:30:05.229Z,1008.59
2018-07-09T03:31:05.245Z,1008.64
2018-07-09T03:32:05.259Z,1008.66
2018-07-09T03:33:05.285Z,1008.62
2018-07-09T03:34:05.306Z,1008.70
2018-07-09T03:35:05.322Z,1008.69
2018-07-09T03:36:05.338Z,1008.67
2018-07-09T03:37:05.355Z,1008.66
2018-07-09T03:38:05.383Z,1008.67
2018-07-09T03:39:05.397Z,1008.68
2018-07-09T03:40:05.417Z,1008.65
2018-07-09T03:41:05.439Z,1008.61
2018-07-09T03:42:05.452Z,1008.59
2018-07-09T03:43:05.482Z,1008.58
2018-07-09T03:44:05.499Z,1008.56
2018-07-09T03:45:05.521Z,1008.56
2018-07-09T03:46:05.540Z,1008.55
2018-07-09T03:47:05.576Z,1008.54
2018-07-09T03:48:05.588Z,1008.58
2018-07-09T03:49:05.593Z,1008.58
2018-07-09T03:50:05.619Z,1008.57
2018-07-09T03:51:05.636Z,1008.55
2018-07-09T03:52:05.651Z,1008.52
2018-07-09T03:53:05.676Z,1008.52
2018-07-09T03:54:05.695Z,1008.51
2018-07-09T03:55:05.710Z,1008.50
2018-07-09T03:56:05.734Z,1008.52
2018-07-09T03:57:05.762Z,1008.50
2018-07-09T03:58:05.771Z,1008.54
2018-07-09T03:59:05.798Z,1008.50
2018-07-09T04:00:05.812Z,1008.49
2018-07-09T04:01:05.837Z,1008.52
2018-07-09T04:02:05.854Z,1008.59
2018-07-09T04:03:05.876Z,1008.62
2018-07-09T04:04:05.901Z,1008.62
2018-07-09T04:05:05.912Z,1008.59
2018-07-09T04:06:05.929Z,1008.60
2018-07-09T04:07:05.955Z,1008.63
2018-07-09T04:08:05.968Z,1008.65
2018-07-09T04:09:06.045Z,1008.66
2018-07-09T04:10:06.010Z,1008.67
2018-07-09T04:11:06.028Z,1008.70
2018-07-09T04:12:06.047Z,1008.70
2018-07-09T04:13:06.073Z,1008.67
2018-07-09T04:14:06.093Z,1008.68
2018-07-09T04:15:06.109Z,1008.70
2018-07-09T04:16:06.128Z,1008.72
2018-07-09T04:17:06.149Z,1008.72
2018-07-09T04:18:06.175Z,1008.70
2018-07-09T04:19:06.192Z,1008.72
2018-07-09T04:20:06.208Z,1008.72
2018-07-09T04:21:06.227Z,1008.68
2018-07-09T04:22:06.256Z,1008.70
2018-07-09T04:23:06.274Z,1008.73
2018-07-09T04:24:06.292Z,1008.68
2018-07-09T04:25:06.308Z,1008.70
2018-07-09T04:26:06.334Z,1008.73
2018-07-09T04:27:06.349Z,1008.75
2018-07-09T04:28:06.372Z,1008.75
2018-07-09T04:29:06.390Z,1008.80
2018-07-09T04:30:06.421Z,1008.79
2018-07-09T04:31:06.432Z,1008.78
2018-07-09T04:32:06.456Z,1008.80
2018-07-09T04:33:06.475Z,1008.84
2018-07-09T04:34:06.501Z,1008.87
2018-07-09T04:35:06.522Z,1008.99
2018-07-09T04:36:06.530Z,1009.05
2018-07-09T04:37:06.554Z,1008.97
2018-07-09T04:38:06.580Z,1008.88
2018-07-09T04:39:06.596Z,1008.83
2018-07-09T04:40:06.614Z,1008.83
2018-07-09T04:41:06.633Z,1008.82
2018-07-09T04:42:06.660Z,1008.84
2018-07-09T04:43:06.723Z,1008.86
2018-07-09T04:44:06.699Z,1008.89
2018-07-09T04:45:06.716Z,1008.87
2018-07-09T04:46:06.743Z,1008.88
2018-07-09T04:47:06.757Z,1008.91
2018-07-09T04:48:06.782Z,1008.93
2018-07-09T04:49:06.797Z,1008.91
2018-07-09T04:50:06.822Z,1008.87
2018-07-09T04:51:06.838Z,1008.92
2018-07-09T04:52:06.860Z,1008.90
2018-07-09T04:53:06.880Z,1008.93
2018-07-09T04:54:06.901Z,1008.94
2018-07-09T04:55:06.921Z,1008.95
2018-07-09T04:56:06.950Z,1009.00
2018-07-09T04:57:06.963Z,1009.01
2018-07-09T04:58:06.985Z,1008.97
2018-07-09T04:59:07.009Z,1009.12
2018-07-09T05:00:07.031Z,1008.98
2018-07-09T05:01:07.048Z,1008.97
2018-07-09T05:02:07.080Z,1008.95
2018-07-09T05:03:07.091Z,1009.04
2018-07-09T05:04:07.123Z,1009.08
2018-07-09T05:05:07.134Z,1009.04
2018-07-09T05:06:07.159Z,1009.05
2018-07-09T05:07:07.175Z,1009.05
2018-07-09T05:08:07.196Z,1009.16
2018-07-09T05:09:07.210Z,1009.09
2018-07-09T05:10:07.243Z,1009.00
2018-07-09T05:11:07.250Z,1009.13
2018-07-09T05:12:07.277Z,1009.42
2018-07-09T05:13:07.360Z,1009.34
2018-07-09T05:14:07.320Z,1009.53
2018-07-09T05:15:07.358Z,1009.16
2018-07-09T05:16:07.365Z,1009.41
2018-07-09T05:17:07.387Z,1008.98
2018-07-09T05:18:07.406Z,1008.98
2018-07-09T05:19:07.438Z,1009.04
2018-07-09T05:20:07.449Z,1009.11
2018-07-09T05:21:07.468Z,1009.19
2018-07-09T05:22:07.533Z,1009.79
2018-07-09T05:23:07.735Z,1010.00
2018-07-09T05:24:07.540Z,1010.19
2018-07-09T05:25:07.550Z,1010.51
2018-07-09T05:26:07.579Z,1009.64
2018-07-09T05:27:07.596Z,1009.46
2018-07-09T05:28:07.624Z,1010.35
2018-07-09T05:29:07.655Z,1009.70
2018-07-09T05:30:07.667Z,1010.42
2018-07-09T05:31:07.692Z,1010.17
2018-07-09T05:32:07.713Z,1010.35
2018-07-09T05:33:07.741Z,1009.94
2018-07-09T05:34:07.761Z,1009.92
2018-07-09T05:35:07.792Z,1010.05
2018-07-09T05:36:07.811Z,1010.40
2018-07-09T05:37:07.840Z,1010.50
2018-07-09T05:38:07.863Z,1010.41
2018-07-09T05:39:07.892Z,1010.47
2018-07-09T05:40:07.956Z,1010.37
2018-07-09T05:41:07.961Z,1010.42
2018-07-09T05:42:07.991Z,1010.50
2018-07-09T05:43:08.008Z,1010.52
2018-07-09T05:44:08.028Z,1010.73
2018-07-09T05:45:08.049Z,1009.99
2018-07-09T05:46:08.081Z,1009.94
2018-07-09T05:47:08.107Z,1009.50
2018-07-09T05:48:08.155Z,1009.56
2018-07-09T05:49:08.155Z,1009.73
2018-07-09T05:50:08.187Z,1010.06
2018-07-09T05:51:08.210Z,1009.61
2018-07-09T05:52:08.240Z,1009.61
2018-07-09T05:53:08.270Z,1011.02
2018-07-09T05:54:08.300Z,1009.56
2018-07-09T05:55:08.328Z,1010.49
2018-07-09T05:56:08.342Z,1009.66
2018-07-09T05:57:08.380Z,1009.62
2018-07-09T05:58:08.418Z,1011.37
2018-07-09T05:59:08.426Z,1010.53
2018-07-09T06:00:08.452Z,1011.39
2018-07-09T06:01:08.481Z,1011.43
2018-07-09T06:02:08.510Z,1011.38
2018-07-09T06:03:08.551Z,1011.34
2018-07-09T06:04:08.555Z,1011.28
2018-07-09T06:05:08.587Z,1011.32
2018-07-09T06:06:08.620Z,1011.40
2018-07-09T06:07:08.647Z,1011.45
2018-07-09T06:08:08.666Z,1011.58
2018-07-09T06:09:08.690Z,1011.55
2018-07-09T06:10:08.727Z,1011.51
2018-07-09T06:11:08.784Z,1011.74
2018-07-09T06:12:08.778Z,1011.86
2018-07-09T06:13:08.816Z,1011.80
2018-07-09T06:14:08.841Z,1011.81
2018-07-09T06:15:08.868Z,1011.86
2018-07-09T06:16:08.896Z,1011.92
2018-07-09T06:17:08.923Z,1012.09
2018-07-09T06:18:08.957Z,1012.37
2018-07-09T06:19:08.984Z,1012.50
2018-07-09T06:20:09.009Z,1012.60
2018-07-09T06:21:09.056Z,1012.76
2018-07-09T06:22:09.082Z,1012.77
2018-07-09T06:23:09.113Z,1012.92
2018-07-09T06:24:09.136Z,1013.02
2018-07-09T06:25:09.182Z,1013.17
2018-07-09T06:26:09.193Z,1013.18
2018-07-09T06:27:09.220Z,1013.50
2018-07-09T06:28:09.262Z,1013.68
2018-07-09T06:29:09.278Z,1013.48
2018-07-09T06:30:09.325Z,1013.85
2018-07-09T06:31:09.347Z,1014.01
2018-07-09T06:32:09.379Z,1014.21
2018-07-09T06:33:09.405Z,1014.43
2018-07-09T06:34:09.452Z,1014.60
2018-07-09T06:35:09.465Z,1014.49
2018-07-09T06:36:09.507Z,1014.32
2018-07-09T06:37:09.533Z,1014.81
2018-07-09T06:38:09.573Z,1015.09
2018-07-09T06:39:09.593Z,1015.39
2018-07-09T06:40:09.632Z,1015.62
2018-07-09T06:41:09.645Z,1015.70
2018-07-09T06:42:09.697Z,1016.16
2018-07-09T06:43:09.709Z,1015.79
2018-07-09T06:44:09.737Z,1015.58
2018-07-09T06:45:09.779Z,1015.84
2018-07-09T06:46:09.810Z,1015.83
2018-07-09T06:47:09.837Z,1016.15
2018-07-09T06:48:09.865Z,1016.73
2018-07-09T06:49:09.894Z,1017.28
2018-07-09T06:50:09.998Z,1017.83
2018-07-09T06:51:09.965Z,1017.73
2018-07-09T06:52:09.988Z,1017.54
2018-07-09T06:53:10.016Z,1017.43
2018-07-09T06:54:10.049Z,1017.25
2018-07-09T06:55:10.085Z,1017.67
2018-07-09T06:56:10.123Z,1018.53
2018-07-09T06:57:10.142Z,1018.88
2018-07-09T06:58:10.167Z,1018.65
2018-07-09T06:59:10.210Z,1018.41
2018-07-09T07:00:10.246Z,1019.16
2018-07-09T07:01:10.268Z,1020.04
2018-07-09T07:02:10.305Z,1019.94
2018-07-09T07:03:10.344Z,1020.04
2018-07-09T07:04:10.367Z,1020.06
2018-07-09T07:05:10.391Z,1020.30
2018-07-09T07:06:10.419Z,1020.77
2018-07-09T07:07:10.477Z,1020.44
2018-07-09T07:08:10.482Z,1020.45
2018-07-09T07:09:10.657Z,1020.51
2018-07-09T07:10:10.563Z,1017.64
2018-07-09T07:11:10.588Z,1023.50
2018-07-09T07:12:10.616Z,1023.61
2018-07-09T07:13:10.650Z,1010.71
2018-07-09T07:14:10.677Z,1011.79
2018-07-09T07:15:10.731Z,1021.76
2018-07-09T07:16:10.730Z,1022.25
2018-07-09T07:17:10.769Z,1010.22
2018-07-09T07:18:10.797Z,1023.89
2018-07-09T07:19:10.844Z,1023.55
2018-07-09T07:20:10.857Z,1023.12
2018-07-09T07:21:10.885Z,1010.96
2018-07-09T07:22:10.914Z,1011.08
2018-07-09T07:23:10.944Z,1022.92
2018-07-09T07:24:10.966Z,1022.33
2018-07-09T07:25:11.000Z,1022.73
2018-07-09T07:26:11.033Z,1022.82
2018-07-09T07:27:11.076Z,1021.97
2018-07-09T07:28:11.102Z,1021.71
2018-07-09T07:29:11.116Z,1016.21
2018-07-09T07:30:11.144Z,1020.12
2018-07-09T07:31:11.170Z,1021.47
2018-07-09T07:32:11.218Z,1020.83
2018-07-09T07:33:11.233Z,1020.76
2018-07-09T07:34:11.257Z,1021.23
2018-07-09T07:35:11.288Z,1021.74
2018-07-09T07:36:11.319Z,1021.72
2018-07-09T07:37:11.344Z,1021.94
2018-07-09T07:38:11.373Z,1021.87
2018-07-09T07:39:11.409Z,1022.44
2018-07-09T07:40:11.433Z,1022.91
2018-07-09T07:41:11.464Z,1022.47
2018-07-09T07:42:11.494Z,1022.33
2018-07-09T07:43:11.528Z,1022.30
2018-07-09T07:44:11.564Z,1022.47
2018-07-09T07:45:11.576Z,1022.30
2018-07-09T07:46:11.609Z,1022.76
2018-07-09T07:47:11.637Z,1023.02
2018-07-09T07:48:11.670Z,1023.72
2018-07-09T07:49:11.702Z,1023.54
2018-07-09T07:50:11.794Z,1023.18
2018-07-09T07:51:11.765Z,1022.68
2018-07-09T07:52:11.810Z,1022.17
2018-07-09T07:53:11.822Z,1023.00
2018-07-09T07:54:11.852Z,1024.63
2018-07-09T07:55:11.873Z,1024.53
2018-07-09T07:56:11.917Z,1024.11
2018-07-09T07:57:11.943Z,1018.77
2018-07-09T07:58:11.978Z,1026.89
2018-07-09T07:59:12.008Z,1024.84
2018-07-09T08:00:12.031Z,1024.00
2018-07-09T08:01:12.085Z,1024.64
2018-07-09T08:02:12.089Z,1024.38
2018-07-09T08:03:12.119Z,1024.76
2018-07-09T08:04:12.143Z,1024.58
2018-07-09T08:05:12.179Z,1022.78
2018-07-09T08:06:12.211Z,1023.62
2018-07-09T08:07:12.240Z,1024.07
2018-07-09T08:08:12.264Z,1024.16
2018-07-09T08:09:12.321Z,1025.60
2018-07-09T08:10:12.357Z,1026.17
2018-07-09T08:11:12.364Z,1026.27
2018-07-09T08:13:00.551Z,1027.06
2018-07-09T08:13:27.990Z,1026.71
2018-07-09T08:14:12.451Z,1026.15
2018-07-09T08:15:12.475Z,1027.01
2018-07-09T08:16:12.520Z,1026.03
2018-07-09T08:17:12.541Z,1027.29
2018-07-09T08:18:12.567Z,1026.65
2018-07-09T08:19:12.637Z,1025.75
2018-07-09T08:20:12.633Z,1026.26
2018-07-09T08:21:12.660Z,1027.33
2018-07-09T08:22:12.719Z,1027.26
2018-07-09T08:23:12.719Z,1026.58
2018-07-09T08:24:12.777Z,1024.93
2018-07-09T08:25:12.808Z,1024.16
2018-07-09T08:26:12.808Z,1022.76
2018-07-09T08:27:12.849Z,1023.49
2018-07-09T08:28:12.864Z,1025.65
2018-07-09T08:29:12.898Z,1026.08
2018-07-09T08:30:12.918Z,1026.39
2018-07-09T08:31:13.119Z,1026.30
2018-07-09T08:32:12.979Z,1024.70
2018-07-09T08:33:13.021Z,1024.34
2018-07-09T08:34:13.031Z,1026.34
2018-07-09T08:35:13.072Z,1024.53
2018-07-09T08:36:13.106Z,1022.54
2018-07-09T08:37:13.123Z,1020.11
2018-07-09T08:38:13.149Z,1012.15
2018-07-09T08:39:13.179Z,1008.82
2018-07-09T08:40:13.205Z,1008.86
2018-07-09T08:41:13.231Z,1008.63
2018-07-09T08:42:13.267Z,1008.37
2018-07-09T08:43:13.290Z,1008.32
2018-07-09T08:44:13.313Z,1008.24
2018-07-09T08:45:13.340Z,1008.27
2018-07-09T08:46:13.388Z,1008.20
2018-07-09T08:47:13.394Z,1008.23
2018-07-09T08:48:13.424Z,1008.20
2018-07-09T08:49:13.457Z,1008.18
2018-07-09T08:50:13.471Z,1008.20
2018-07-09T08:51:13.503Z,1008.25
2018-07-09T08:52:13.521Z,1008.38
2018-07-09T08:53:13.542Z,1008.48
2018-07-09T08:54:13.577Z,1008.19
2018-07-09T08:55:13.621Z,1008.14
2018-07-09T08:56:13.631Z,1008.20
2018-07-09T08:57:13.649Z,1008.43
2018-07-09T08:58:13.673Z,1008.81
2018-07-09T08:59:13.710Z,1009.23
2018-07-09T09:00:13.731Z,1009.36
2018-07-09T09:01:13.765Z,1009.46
2018-07-09T09:02:13.781Z,1009.42
2018-07-09T09:03:13.807Z,1009.26
2018-07-09T09:04:13.829Z,1009.46
2018-07-09T09:05:13.857Z,1009.61
2018-07-09T09:06:13.884Z,1009.37
2018-07-09T09:07:13.923Z,1009.10
2018-07-09T09:08:13.949Z,1009.28
2018-07-09T09:09:13.958Z,1008.96
2018-07-09T09:10:14.026Z,1009.07
2018-07-09T09:11:14.008Z,1008.62
2018-07-09T09:12:14.034Z,1008.67
2018-07-09T09:13:14.053Z,1008.76
2018-07-09T09:14:14.107Z,1008.94
2018-07-09T09:15:14.108Z,1008.88
2018-07-09T09:16:14.128Z,1008.72
2018-07-09T09:17:14.152Z,1008.66
2018-07-09T09:18:14.180Z,1008.98
2018-07-09T09:19:14.199Z,1009.12
2018-07-09T09:20:14.223Z,1008.78
2018-07-09T09:21:14.268Z,1008.66
2018-07-09T09:22:14.274Z,1008.77
2018-07-09T09:23:14.308Z,1008.78
2018-07-09T09:24:14.331Z,1008.74
2018-07-09T09:25:14.349Z,1008.78
2018-07-09T09:26:14.389Z,1009.05
2018-07-09T09:27:14.403Z,1009.06
2018-07-09T09:28:14.422Z,1008.86
2018-07-09T09:29:14.445Z,1008.66
2018-07-09T09:30:14.478Z,1008.86
2018-07-09T09:31:14.583Z,1008.93
2018-07-09T09:32:14.539Z,1008.67
2018-07-09T09:33:14.570Z,1008.77
2018-07-09T09:34:14.578Z,1008.99
2018-07-09T09:35:14.617Z,1008.93
2018-07-09T09:36:14.635Z,1008.90
2018-07-09T09:37:14.659Z,1008.96
2018-07-09T09:38:14.674Z,1008.87
2018-07-09T09:39:14.697Z,1008.71
2018-07-09T09:40:14.748Z,1008.50
2018-07-09T09:41:14.749Z,1008.42
2018-07-09T09:42:14.770Z,1008.51
2018-07-09T09:43:14.896Z,1008.49
2018-07-09T09:44:14.820Z,1008.44
2018-07-09T09:45:14.856Z,1008.53
2018-07-09T09:46:14.876Z,1008.58
2018-07-09T09:47:14.904Z,1008.51
2018-07-09T09:48:14.936Z,1008.55
2018-07-09T09:49:14.974Z,1008.69
2018-07-09T09:50:14.975Z,1008.60
2018-07-09T09:51:15.000Z,1008.51
2018-07-09T09:52:15.033Z,1008.51
2018-07-09T09:53:15.047Z,1008.61
2018-07-09T09:54:15.087Z,1008.66
2018-07-09T09:55:15.109Z,1008.47
2018-07-09T09:56:15.143Z,1008.25
2018-07-09T09:57:15.149Z,1008.20
2018-07-09T09:58:15.174Z,1008.23
2018-07-09T09:59:15.207Z,1008.41
2018-07-09T10:00:15.238Z,1008.41
2018-07-09T10:01:15.259Z,1008.56
2018-07-09T10:02:15.288Z,1008.57
2018-07-09T10:03:15.304Z,1008.29
2018-07-09T10:04:15.326Z,1008.23
2018-07-09T10:05:15.364Z,1008.23
2018-07-09T10:06:15.381Z,1008.08
2018-07-09T10:07:15.422Z,1008.15
2018-07-09T10:08:15.432Z,1008.22
2018-07-09T10:09:15.460Z,1008.19
2018-07-09T10:10:15.482Z,1008.17
2018-07-09T10:11:15.524Z,1008.19
2018-07-09T10:12:15.546Z,1008.17
2018-07-09T10:13:15.558Z,1008.18
2018-07-09T10:14:15.579Z,1008.24
2018-07-09T10:15:15.614Z,1008.32
2018-07-09T10:16:15.634Z,1008.57
2018-07-09T10:17:15.669Z,1008.68
2018-07-09T10:18:15.681Z,1008.77
2018-07-09T10:19:15.716Z,1008.70
2018-07-09T10:20:15.748Z,1008.64
2018-07-09T10:21:15.770Z,1008.51
2018-07-09T10:22:15.796Z,1008.37
2018-07-09T10:23:15.855Z,1008.28
2018-07-09T10:24:15.836Z,1008.22
2018-07-09T10:25:15.866Z,1008.19
2018-07-09T10:26:15.887Z,1008.30
2018-07-09T10:27:15.930Z,1008.28
2018-07-09T10:28:15.945Z,1008.22
2018-07-09T10:29:15.964Z,1008.10
2018-07-09T10:30:15.986Z,1008.11
2018-07-09T10:31:16.016Z,1008.10
2018-07-09T10:32:16.040Z,1008.10
2018-07-09T10:33:16.106Z,1008.19
2018-07-09T10:34:16.087Z,1008.25
2018-07-09T10:35:16.124Z,1008.21
2018-07-09T10:36:16.146Z,1008.19
2018-07-09T10:37:16.164Z,1008.03
2018-07-09T10:38:16.194Z,1008.02
2018-07-09T10:39:16.215Z,1008.01
2018-07-09T10:40:16.247Z,1008.09
2018-07-09T10:41:16.276Z,1008.19
2018-07-09T10:42:16.291Z,1008.33
2018-07-09T10:43:16.317Z,1008.31
2018-07-09T10:44:16.355Z,1008.19
2018-07-09T10:45:16.377Z,1008.19
2018-07-09T10:46:16.408Z,1008.32
2018-07-09T10:47:16.427Z,1008.36
2018-07-09T10:48:16.449Z,1008.14
2018-07-09T10:49:16.483Z,1008.25
2018-07-09T10:50:16.503Z,1008.45
2018-07-09T10:51:16.531Z,1008.53
2018-07-09T10:52:16.552Z,1008.65
2018-07-09T10:53:16.576Z,1008.50
2018-07-09T10:54:16.598Z,1008.43
2018-07-09T10:55:16.705Z,1008.39
2018-07-09T10:56:16.655Z,1008.44
2018-07-09T10:57:16.680Z,1008.37
2018-07-09T10:58:16.700Z,1008.16
2018-07-09T10:59:16.732Z,1007.97
2018-07-09T11:00:16.749Z,1007.95
2018-07-09T11:01:16.778Z,1007.93
2018-07-09T11:02:16.810Z,1007.95
2018-07-09T11:03:16.823Z,1007.92
2018-07-09T11:04:16.852Z,1007.90
2018-07-09T11:05:16.871Z,1007.92
2018-07-09T11:06:16.905Z,1007.87
2018-07-09T11:07:16.928Z,1007.93
2018-07-09T11:08:16.948Z,1007.92
2018-07-09T11:09:16.968Z,1007.93
2018-07-09T11:10:16.999Z,1007.92
2018-07-09T11:11:17.018Z,1007.94
2018-07-09T11:12:17.043Z,1007.94
2018-07-09T11:13:17.082Z,1007.94
2018-07-09T11:14:17.106Z,1007.91
2018-07-09T11:15:17.126Z,1007.87
2018-07-09T11:16:17.241Z,1007.94
2018-07-09T11:17:17.175Z,1007.88
2018-07-09T11:18:17.191Z,1007.85
2018-07-09T11:19:17.214Z,1007.80
2018-07-09T11:20:17.234Z,1007.83
2018-07-09T11:21:17.292Z,1007.88
2018-07-09T11:22:17.292Z,1007.98
2018-07-09T11:23:17.319Z,1008.00
2018-07-09T11:24:17.333Z,1008.06
2018-07-09T11:25:17.365Z,1008.09
2018-07-09T11:26:17.391Z,1008.13
2018-07-09T11:27:17.411Z,1008.14
2018-07-09T11:28:17.431Z,1008.04
2018-07-09T11:29:17.532Z,1007.99
2018-07-09T11:30:17.481Z,1008.09
2018-07-09T11:31:17.506Z,1008.06
2018-07-09T11:32:17.538Z,1008.10
2018-07-09T11:33:17.545Z,1008.03
2018-07-09T11:34:17.574Z,1008.01
2018-07-09T11:35:17.602Z,1007.95
2018-07-09T11:36:17.627Z,1007.96
2018-07-09T11:37:17.668Z,1007.90
2018-07-09T11:38:17.668Z,1007.84
2018-07-09T11:39:17.687Z,1007.81
2018-07-09T11:40:17.712Z,1007.76
2018-07-09T11:41:17.742Z,1007.80
2018-07-09T11:42:17.761Z,1007.79
2018-07-09T11:43:17.788Z,1007.75
2018-07-09T11:44:17.815Z,1007.74
2018-07-09T11:45:17.832Z,1007.73
2018-07-09T11:46:17.859Z,1007.71
2018-07-09T11:47:17.879Z,1007.75
2018-07-09T11:48:17.900Z,1007.73
2018-07-09T11:49:17.926Z,1007.74
2018-07-09T11:50:17.956Z,1007.69
2018-07-09T11:51:17.978Z,1007.66
2018-07-09T11:52:17.995Z,1007.67
2018-07-09T11:53:18.018Z,1007.73
2018-07-09T11:54:18.045Z,1007.73
2018-07-09T11:55:18.071Z,1007.75
2018-07-09T11:56:18.094Z,1007.84
2018-07-09T11:57:18.113Z,1007.87
2018-07-09T11:58:18.149Z,1007.93
2018-07-09T11:59:18.166Z,1008.02
2018-07-09T12:00:18.189Z,1008.06
2018-07-09T12:01:18.208Z,1008.11
2018-07-09T12:02:18.232Z,1008.10
2018-07-09T12:03:18.258Z,1008.14
2018-07-09T12:04:18.300Z,1008.07
2018-07-09T12:05:18.311Z,1008.03